South Effingham, NH (03882)

8:20 PM EST on December 24, 2014 (GMT -0500)
Belleau Lake | Change Station
CLOSE
Current Station
Personal Weather Station
Location: East Wakefield, NH
Elevation: 617 ft
Nearby Weather Stations
Active Advisory: Areal Flood Watch

Elev 617 ft 43.66 °N, 70.99 °W | Updated 30 seconds ago

Rain
Rain
35.4 °F
Feels Like 35 °F
N
0.0
Wind Variable Wind from WSW
Gusts 0.7 mph

Today
High -- | Low -- °F
--% Chance of Precip.
Yesterday
High -- | Low -- °F
Precip. -- in
7:15 AM 4:11 PM
Waxing Crescent, 12% visible
Pressure 29.77 in
Visibility 4.0 miles
Clouds Few 400 ft
Overcast 1700 ft
Windchill 35 °F
Dew Point 31 °F
Humidity 85%
Rainfall 1.30 in
Snow Depth Not available.
UV 0 out of 12
Pollen .10 out of 12
Air Quality Not available.
Flu Activity Not available.
METAR KIZG 250054Z AUTO 00000KT 4SM -RA BR FEW004 OVC017 02/01 A2975 RMK AO2 PRESFR SLP081 P0008 T00170011

More Conditions Fewer Conditions

Pressure 29.77 in
Visibility 4.0 miles
Clouds Few 400 ft
Overcast 1700 ft
Windchill 35 °F
Dew Point 31 °F
Humidity 85%
Rainfall 1.30 in
Snow Depth Not available.
UV 0 out of 12
Pollen .10 out of 12
Air Quality Not available.
Flu Activity Not available.
METAR KIZG 250054Z AUTO 00000KT 4SM -RA BR FEW004 OVC017 02/01 A2975 RMK AO2 PRESFR SLP081 P0008 T00170011

More Conditions Fewer Conditions

10-Day Weather Forecast

Almanac

Astronomy

Dec. 24, 2014 Rise Set
Actual Time
Civil Twilight
Nautical Twilight
Astronomical Twilight
Moon
Length of Visible Light
Length of Day
Tomorrow will be .
, % of the Moon is Illuminated

Today's Extremes

State Highs State Lows

Community

WunderPhotos

Upload Photos

1,780,203 photos uploaded!

WunderBlogs® & News

Nearby

Air Quality

  Air Quality AQ Index Pollutant
Not available.

Snow Depth

Station Depth Elevation

Earthquake Activity

City Distance Mag. Time & Date
Minimum magnitude displayed is 2.5.

Coastal Water Temperatures

Place Temperature

Nearby Weather Stations